sensor_id;sensor_type;location;lat;lon;timestamp;pressure;altitude;pressure_sealevel;temperature;humidity
33163;BME280;29282;45.656;11.302;2023-04-26T00:00:41;97973.78;;;18.24;53.11
33163;BME280;29282;45.656;11.302;2023-04-26T00:03:07;97977.31;;;18.24;53.28
33163;BME280;29282;45.656;11.302;2023-04-26T00:05:33;97978.13;;;18.25;53.19
33163;BME280;29282;45.656;11.302;2023-04-26T00:07:59;97972.28;;;18.26;53.19
33163;BME280;29282;45.656;11.302;2023-04-26T00:10:25;97976.97;;;18.26;53.13
33163;BME280;29282;45.656;11.302;2023-04-26T00:12:50;97978.94;;;18.25;53.18
33163;BME280;29282;45.656;11.302;2023-04-26T00:15:16;97985.22;;;18.26;53.04
33163;BME280;29282;45.656;11.302;2023-04-26T00:17:42;97985.22;;;18.26;52.84
33163;BME280;29282;45.656;11.302;2023-04-26T00:20:08;97989.53;;;18.27;52.79
33163;BME280;29282;45.656;11.302;2023-04-26T00:22:36;97986.00;;;18.26;53.08
33163;BME280;29282;45.656;11.302;2023-04-26T00:25:01;97986.81;;;18.27;53.12
33163;BME280;29282;45.656;11.302;2023-04-26T00:27:27;97985.69;;;18.28;52.92
33163;BME280;29282;45.656;11.302;2023-04-26T00:29:52;97987.59;;;18.27;52.92
33163;BME280;29282;45.656;11.302;2023-04-26T00:32:18;97988.44;;;18.28;52.91
33163;BME280;29282;45.656;11.302;2023-04-26T00:34:43;97983.75;;;18.28;52.63
33163;BME280;29282;45.656;11.302;2023-04-26T00:37:09;97984.06;;;18.27;52.79
33163;BME280;29282;45.656;11.302;2023-04-26T00:39:34;97986.81;;;18.27;53.02
33163;BME280;29282;45.656;11.302;2023-04-26T00:42:00;97980.53;;;18.26;52.90
33163;BME280;29282;45.656;11.302;2023-04-26T00:44:26;97984.84;;;18.27;53.01
33163;BME280;29282;45.656;11.302;2023-04-26T00:46:52;97982.13;;;18.27;52.75
33163;BME280;29282;45.656;11.302;2023-04-26T00:49:20;97984.84;;;18.27;52.89
33163;BME280;29282;45.656;11.302;2023-04-26T00:51:46;97979.38;;;18.27;52.50
33163;BME280;29282;45.656;11.302;2023-04-26T00:54:13;97975.84;;;18.27;52.67
33163;BME280;29282;45.656;11.302;2023-04-26T00:56:38;97971.97;;;18.28;52.83
33163;BME280;29282;45.656;11.302;2023-04-26T00:59:04;97975.50;;;18.28;52.60
33163;BME280;29282;45.656;11.302;2023-04-26T01:01:30;97975.50;;;18.28;52.59
33163;BME280;29282;45.656;11.302;2023-04-26T01:03:56;97978.25;;;18.28;52.70
33163;BME280;29282;45.656;11.302;2023-04-26T01:06:22;97978.25;;;18.28;52.57
33163;BME280;29282;45.656;11.302;2023-04-26T01:08:52;97979.84;;;18.29;52.49
33163;BME280;29282;45.656;11.302;2023-04-26T01:11:19;97977.09;;;18.29;52.48
33163;BME280;29282;45.656;11.302;2023-04-26T01:13:46;97982.25;;;18.31;52.24
33163;BME280;29282;45.656;11.302;2023-04-26T01:16:13;97981.91;;;18.33;52.47
33163;BME280;29282;45.656;11.302;2023-04-26T01:18:40;97981.56;;;18.34;52.19
33163;BME280;29282;45.656;11.302;2023-04-26T01:21:05;97979.97;;;18.33;52.19
33163;BME280;29282;45.656;11.302;2023-04-26T01:23:31;97985.13;;;18.35;52.29
33163;BME280;29282;45.656;11.302;2023-04-26T01:25:56;97981.56;;;18.34;52.33
33163;BME280;29282;45.656;11.302;2023-04-26T01:28:22;97987.03;;;18.34;52.18
33163;BME280;29282;45.656;11.302;2023-04-26T01:30:47;97988.97;;;18.34;52.07
33163;BME280;29282;45.656;11.302;2023-04-26T01:33:13;97988.66;;;18.35;51.99
33163;BME280;29282;45.656;11.302;2023-04-26T01:35:40;97986.25;;;18.34;52.15
33163;BME280;29282;45.656;11.302;2023-04-26T01:38:06;97979.63;;;18.35;52.18
33163;BME280;29282;45.656;11.302;2023-04-26T01:40:31;97996.41;;;18.33;52.23
33163;BME280;29282;45.656;11.302;2023-04-26T01:42:57;97988.97;;;18.34;52.06
33163;BME280;29282;45.656;11.302;2023-04-26T01:45:22;98003.50;;;18.34;52.21
33163;BME280;29282;45.656;11.302;2023-04-26T01:47:48;98004.66;;;18.33;51.99
33163;BME280;29282;45.656;11.302;2023-04-26T01:50:13;98002.69;;;18.34;52.12
33163;BME280;29282;45.656;11.302;2023-04-26T01:52:39;98005.13;;;18.35;52.19
33163;BME280;29282;45.656;11.302;2023-04-26T01:55:05;98006.22;;;18.34;52.05
33163;BME280;29282;45.656;11.302;2023-04-26T01:57:31;98013.66;;;18.34;52.23
33163;BME280;29282;45.656;11.302;2023-04-26T01:59:57;98024.63;;;18.34;52.05
33163;BME280;29282;45.656;11.302;2023-04-26T02:02:23;98019.94;;;18.34;52.05
33163;BME280;29282;45.656;11.302;2023-04-26T02:04:49;98023.03;;;18.33;51.97
33163;BME280;29282;45.656;11.302;2023-04-26T02:07:15;98025.78;;;18.33;52.00
33163;BME280;29282;45.656;11.302;2023-04-26T02:09:40;98021.09;;;18.33;51.96
33163;BME280;29282;45.656;11.302;2023-04-26T02:12:06;98027.38;;;18.34;51.93
33163;BME280;29282;45.656;11.302;2023-04-26T02:14:31;98019.16;;;18.34;52.02
33163;BME280;29282;45.656;11.302;2023-04-26T02:16:57;98020.31;;;18.33;52.19
33163;BME280;29282;45.656;11.302;2023-04-26T02:19:22;98026.25;;;18.35;51.91
33163;BME280;29282;45.656;11.302;2023-04-26T02:21:56;98027.84;;;18.36;51.90
33163;BME280;29282;45.656;11.302;2023-04-26T02:24:22;98025.91;;;18.36;51.78
33163;BME280;29282;45.656;11.302;2023-04-26T02:26:48;98021.22;;;18.37;51.68
33163;BME280;29282;45.656;11.302;2023-04-26T02:29:13;98029.44;;;18.37;51.72
33163;BME280;29282;45.656;11.302;2023-04-26T02:31:39;98028.31;;;18.38;51.62
33163;BME280;29282;45.656;11.302;2023-04-26T02:34:05;98031.06;;;18.38;51.85
33163;BME280;29282;45.656;11.302;2023-04-26T02:36:30;98031.50;;;18.40;51.72
33163;BME280;29282;45.656;11.302;2023-04-26T02:38:57;98029.56;;;18.40;51.64
33163;BME280;29282;45.656;11.302;2023-04-26T02:41:23;98030.34;;;18.41;51.45
33163;BME280;29282;45.656;11.302;2023-04-26T02:43:49;98037.78;;;18.40;51.49
33163;BME280;29282;45.656;11.302;2023-04-26T02:46:14;98019.06;;;18.42;51.38
33163;BME280;29282;45.656;11.302;2023-04-26T02:48:40;98030.34;;;18.41;51.51
33163;BME280;29282;45.656;11.302;2023-04-26T02:51:05;98025.34;;;18.43;51.63
33163;BME280;29282;45.656;11.302;2023-04-26T02:53:31;98041.34;;;18.41;51.58
33163;BME280;29282;45.656;11.302;2023-04-26T02:55:56;98029.69;;;18.44;51.54
33163;BME280;29282;45.656;11.302;2023-04-26T02:58:22;98026.94;;;18.44;51.42
33163;BME280;29282;45.656;11.302;2023-04-26T03:00:47;98025.81;;;18.45;51.16
33163;BME280;29282;45.656;11.302;2023-04-26T03:03:13;98036.00;;;18.44;51.43
33163;BME280;29282;45.656;11.302;2023-04-26T03:05:39;98023.06;;;18.45;51.15
33163;BME280;29282;45.656;11.302;2023-04-26T03:08:05;98024.66;;;18.46;51.21
33163;BME280;29282;45.656;11.302;2023-04-26T03:10:31;98020.34;;;18.45;51.48
33163;BME280;29282;45.656;11.302;2023-04-26T03:12:56;98023.41;;;18.43;51.41
33163;BME280;29282;45.656;11.302;2023-04-26T03:15:22;98028.09;;;18.43;51.55
33163;BME280;29282;45.656;11.302;2023-04-26T03:17:47;98017.47;;;18.41;51.46
33163;BME280;29282;45.656;11.302;2023-04-26T03:20:13;98017.13;;;18.43;51.25
33163;BME280;29282;45.656;11.302;2023-04-26T03:22:39;98021.81;;;18.42;51.23
33163;BME280;29282;45.656;11.302;2023-04-26T03:25:05;98021.81;;;18.42;51.32
33163;BME280;29282;45.656;11.302;2023-04-26T03:27:32;98023.75;;;18.42;51.41
33163;BME280;29282;45.656;11.302;2023-04-26T03:29:57;98026.50;;;18.42;51.40
33163;BME280;29282;45.656;11.302;2023-04-26T03:32:23;98025.34;;;18.43;51.40
33163;BME280;29282;45.656;11.302;2023-04-26T03:34:48;98031.97;;;18.42;51.41
33163;BME280;29282;45.656;11.302;2023-04-26T03:37:14;98034.38;;;18.43;51.33
33163;BME280;29282;45.656;11.302;2023-04-26T03:39:40;98033.56;;;18.43;51.30
33163;BME280;29282;45.656;11.302;2023-04-26T03:42:05;98039.06;;;18.43;51.34
33163;BME280;29282;45.656;11.302;2023-04-26T03:44:30;98031.97;;;18.42;51.35
33163;BME280;29282;45.656;11.302;2023-04-26T03:46:56;98027.28;;;18.42;51.10
33163;BME280;29282;45.656;11.302;2023-04-26T03:49:22;98035.53;;;18.42;51.12
33163;BME280;29282;45.656;11.302;2023-04-26T03:51:47;98037.13;;;18.43;51.22
33163;BME280;29282;45.656;11.302;2023-04-26T03:54:14;98034.84;;;18.45;51.06
33163;BME280;29282;45.656;11.302;2023-04-26T03:56:39;98042.72;;;18.47;50.97
33163;BME280;29282;45.656;11.302;2023-04-26T03:59:05;98039.97;;;18.47;51.19
33163;BME280;29282;45.656;11.302;2023-04-26T04:01:31;98046.25;;;18.47;51.03
33163;BME280;29282;45.656;11.302;2023-04-26T04:03:57;98042.03;;;18.50;51.04
33163;BME280;29282;45.656;11.302;2023-04-26T04:06:22;98047.88;;;18.48;51.20
33163;BME280;29282;45.656;11.302;2023-04-26T04:08:48;98049.00;;;18.47;51.13
33163;BME280;29282;45.656;11.302;2023-04-26T04:11:13;98058.84;;;18.48;51.00
33163;BME280;29282;45.656;11.302;2023-04-26T04:13:39;98067.41;;;18.47;51.28
33163;BME280;29282;45.656;11.302;2023-04-26T04:16:04;98066.59;;;18.46;51.30
33163;BME280;29282;45.656;11.302;2023-04-26T04:18:31;98073.69;;;18.47;51.19
33163;BME280;29282;45.656;11.302;2023-04-26T04:20:56;98071.78;;;18.48;51.09
33163;BME280;29282;45.656;11.302;2023-04-26T04:23:22;98071.78;;;18.48;51.13
33163;BME280;29282;45.656;11.302;2023-04-26T04:25:47;98085.50;;;18.48;50.97
33163;BME280;29282;45.656;11.302;2023-04-26T04:28:13;98083.06;;;18.46;51.17
33163;BME280;29282;45.656;11.302;2023-04-26T04:30:40;98079.06;;;18.44;51.51
33163;BME280;29282;45.656;11.302;2023-04-26T04:33:07;98097.13;;;18.45;51.59
33163;BME280;29282;45.656;11.302;2023-04-26T04:35:33;98091.66;;;18.45;51.18
33163;BME280;29282;45.656;11.302;2023-04-26T04:37:59;98107.75;;;18.46;51.36
33163;BME280;29282;45.656;11.302;2023-04-26T04:40:26;98110.19;;;18.48;51.24
33163;BME280;29282;45.656;11.302;2023-04-26T04:42:51;98110.19;;;18.48;50.99
33163;BME280;29282;45.656;11.302;2023-04-26T04:45:18;98116.47;;;18.48;51.22
33163;BME280;29282;45.656;11.302;2023-04-26T04:47:44;98119.22;;;18.48;51.14
33163;BME280;29282;45.656;11.302;2023-04-26T04:50:10;98122.28;;;18.47;51.08
33163;BME280;29282;45.656;11.302;2023-04-26T04:52:36;98123.06;;;18.47;51.00
33163;BME280;29282;45.656;11.302;2023-04-26T04:55:02;98117.25;;;18.49;50.98
33163;BME280;29282;45.656;11.302;2023-04-26T04:57:28;98118.41;;;18.48;51.03
33163;BME280;29282;45.656;11.302;2023-04-26T04:59:54;98117.25;;;18.49;51.02
33163;BME280;29282;45.656;11.302;2023-04-26T05:02:19;98127.75;;;18.47;51.06
33163;BME280;29282;45.656;11.302;2023-04-26T05:04:45;98132.13;;;18.48;50.79
33163;BME280;29282;45.656;11.302;2023-04-26T05:07:11;98133.25;;;18.47;51.01
33163;BME280;29282;45.656;11.302;2023-04-26T05:09:40;98139.53;;;18.47;51.03
33163;BME280;29282;45.656;11.302;2023-04-26T05:12:06;98138.72;;;18.47;50.92
33163;BME280;29282;45.656;11.302;2023-04-26T05:14:31;98137.94;;;18.46;51.02
33163;BME280;29282;45.656;11.302;2023-04-26T05:16:57;98143.78;;;18.45;50.88
33163;BME280;29282;45.656;11.302;2023-04-26T05:19:22;98137.50;;;18.44;50.91
33163;BME280;29282;45.656;11.302;2023-04-26T05:21:48;98146.50;;;18.45;51.13
33163;BME280;29282;45.656;11.302;2023-04-26T05:24:13;98146.50;;;18.45;50.88
33163;BME280;29282;45.656;11.302;2023-04-26T05:26:38;98155.31;;;18.50;50.81
33163;BME280;29282;45.656;11.302;2023-04-26T05:29:04;98151.56;;;18.55;50.58
33163;BME280;29282;45.656;11.302;2023-04-26T05:31:30;98159.94;;;18.59;50.47
33163;BME280;29282;45.656;11.302;2023-04-26T05:33:55;98164.75;;;18.62;50.43
33163;BME280;29282;45.656;11.302;2023-04-26T05:36:21;98163.28;;;18.64;50.31
33163;BME280;29282;45.656;11.302;2023-04-26T05:38:47;98162.91;;;18.66;50.20
33163;BME280;29282;45.656;11.302;2023-04-26T05:41:13;98168.41;;;18.66;50.27
33163;BME280;29282;45.656;11.302;2023-04-26T05:43:38;98170.78;;;18.67;50.44
33163;BME280;29282;45.656;11.302;2023-04-26T05:46:04;98185.00;;;18.69;50.04
33163;BME280;29282;45.656;11.302;2023-04-26T05:48:30;98175.16;;;18.68;50.13
33163;BME280;29282;45.656;11.302;2023-04-26T05:50:55;98181.09;;;18.70;50.16
33163;BME280;29282;45.656;11.302;2023-04-26T05:53:21;98181.09;;;18.70;50.20
33163;BME280;29282;45.656;11.302;2023-04-26T05:55:46;98183.56;;;18.72;50.04
33163;BME280;29282;45.656;11.302;2023-04-26T05:58:12;98185.94;;;18.73;50.27
33163;BME280;29282;45.656;11.302;2023-04-26T06:00:38;98192.22;;;18.74;50.33
33163;BME280;29282;45.656;11.302;2023-04-26T06:03:04;98186.75;;;18.74;50.25
33163;BME280;29282;45.656;11.302;2023-04-26T06:05:30;98187.56;;;18.74;50.32
33163;BME280;29282;45.656;11.302;2023-04-26T06:07:56;98192.22;;;18.74;50.27
33163;BME280;29282;45.656;11.302;2023-04-26T06:10:21;98191.09;;;18.75;50.25
33163;BME280;29282;45.656;11.302;2023-04-26T06:12:47;98193.97;;;18.78;50.49
33163;BME280;29282;45.656;11.302;2023-04-26T06:15:12;98185.06;;;18.82;50.25
33163;BME280;29282;45.656;11.302;2023-04-26T06:17:39;98197.75;;;18.86;50.26
33163;BME280;29282;45.656;11.302;2023-04-26T06:20:06;98200.19;;;18.88;50.25
33163;BME280;29282;45.656;11.302;2023-04-26T06:22:33;98200.97;;;18.88;50.27
33163;BME280;29282;45.656;11.302;2023-04-26T06:24:59;98195.13;;;18.90;50.11
33163;BME280;29282;45.656;11.302;2023-04-26T06:27:24;98201.41;;;18.90;50.40
33163;BME280;29282;45.656;11.302;2023-04-26T06:29:50;98201.41;;;18.90;50.33
33163;BME280;29282;45.656;11.302;2023-04-26T06:32:16;98201.09;;;18.92;50.22
33163;BME280;29282;45.656;11.302;2023-04-26T06:34:42;98200.63;;;18.90;50.32
33163;BME280;29282;45.656;11.302;2023-04-26T06:37:10;98199.03;;;18.89;50.12
33163;BME280;29282;45.656;11.302;2023-04-26T06:39:35;98199.34;;;18.87;50.11
33163;BME280;29282;45.656;11.302;2023-04-26T06:42:03;98200.84;;;18.85;49.98
33163;BME280;29282;45.656;11.302;2023-04-26T06:44:28;98216.19;;;18.86;49.98
33163;BME280;29282;45.656;11.302;2023-04-26T06:46:55;98211.16;;;18.88;49.89
33163;BME280;29282;45.656;11.302;2023-04-26T06:49:20;98210.00;;;18.89;49.94
33163;BME280;29282;45.656;11.302;2023-04-26T06:51:46;98209.66;;;18.90;49.92
33163;BME280;29282;45.656;11.302;2023-04-26T06:54:11;98216.78;;;18.91;50.07
33163;BME280;29282;45.656;11.302;2023-04-26T06:56:37;98214.81;;;18.92;49.93
33163;BME280;29282;45.656;11.302;2023-04-26T06:59:03;98211.28;;;18.91;49.92
33163;BME280;29282;45.656;11.302;2023-04-26T07:01:30;98224.22;;;18.91;50.12
33163;BME280;29282;45.656;11.302;2023-04-26T07:03:58;98232.09;;;18.92;50.03
33163;BME280;29282;45.656;11.302;2023-04-26T07:06:25;98231.97;;;18.89;50.12
33163;BME280;29282;45.656;11.302;2023-04-26T07:08:51;98227.94;;;18.86;50.14
33163;BME280;29282;45.656;11.302;2023-04-26T07:11:16;98227.03;;;18.82;50.32
33163;BME280;29282;45.656;11.302;2023-04-26T07:13:42;98230.09;;;18.81;50.33
33163;BME280;29282;45.656;11.302;2023-04-26T07:16:07;98228.84;;;18.78;50.41
33163;BME280;29282;45.656;11.302;2023-04-26T07:18:33;98224.50;;;18.77;50.48
33163;BME280;29282;45.656;11.302;2023-04-26T07:20:59;98235.81;;;18.75;50.61
33163;BME280;29282;45.656;11.302;2023-04-26T07:23:24;98236.13;;;18.74;50.51
33163;BME280;29282;45.656;11.302;2023-04-26T07:25:50;98236.50;;;18.72;50.62
33163;BME280;29282;45.656;11.302;2023-04-26T07:28:15;98239.25;;;18.72;50.58
33163;BME280;29282;45.656;11.302;2023-04-26T07:30:41;98229.38;;;18.71;50.71
33163;BME280;29282;45.656;11.302;2023-04-26T07:33:06;98242.63;;;18.69;50.65
33163;BME280;29282;45.656;11.302;2023-04-26T07:35:32;98239.09;;;18.69;50.80
33163;BME280;29282;45.656;11.302;2023-04-26T07:37:59;98242.16;;;18.67;50.75
33163;BME280;29282;45.656;11.302;2023-04-26T07:40:25;98233.13;;;18.67;50.87
33163;BME280;29282;45.656;11.302;2023-04-26T07:42:52;98238.59;;;18.67;50.70
33163;BME280;29282;45.656;11.302;2023-04-26T07:45:17;98240.91;;;18.65;50.97
33163;BME280;29282;45.656;11.302;2023-04-26T07:47:43;98242.03;;;18.64;50.87
33163;BME280;29282;45.656;11.302;2023-04-26T07:50:10;98236.88;;;18.62;50.97
33163;BME280;29282;45.656;11.302;2023-04-26T07:52:36;98238.03;;;18.61;50.96
33163;BME280;29282;45.656;11.302;2023-04-26T07:55:01;98245.13;;;18.62;50.99
33163;BME280;29282;45.656;11.302;2023-04-26T07:57:27;98243.53;;;18.61;51.01
33163;BME280;29282;45.656;11.302;2023-04-26T07:59:52;98247.72;;;18.59;51.02
33163;BME280;29282;45.656;11.302;2023-04-26T08:02:18;98241.44;;;18.58;51.09
33163;BME280;29282;45.656;11.302;2023-04-26T08:04:48;98241.44;;;18.58;51.08
33163;BME280;29282;45.656;11.302;2023-04-26T08:07:14;98247.38;;;18.60;51.02
33163;BME280;29282;45.656;11.302;2023-04-26T08:09:40;98239.63;;;18.62;51.07
33163;BME280;29282;45.656;11.302;2023-04-26T08:12:06;98238.97;;;18.65;50.90
33163;BME280;29282;45.656;11.302;2023-04-26T08:14:33;98247.31;;;18.69;50.79
33163;BME280;29282;45.656;11.302;2023-04-26T08:17:00;98246.31;;;18.73;50.82
33163;BME280;29282;45.656;11.302;2023-04-26T08:19:26;98241.31;;;18.75;50.67
33163;BME280;29282;45.656;11.302;2023-04-26T08:21:55;98242.22;;;18.80;50.69
33163;BME280;29282;45.656;11.302;2023-04-26T08:24:21;98241.91;;;18.81;50.53
33163;BME280;29282;45.656;11.302;2023-04-26T08:26:46;98249.78;;;18.83;50.58
33163;BME280;29282;45.656;11.302;2023-04-26T08:29:12;98238.00;;;18.82;50.60
33163;BME280;29282;45.656;11.302;2023-04-26T08:31:37;98246.84;;;18.88;50.57
33163;BME280;29282;45.656;11.302;2023-04-26T08:34:03;98241.81;;;18.90;50.46
33163;BME280;29282;45.656;11.302;2023-04-26T08:36:28;98232.78;;;18.89;50.56
33163;BME280;29282;45.656;11.302;2023-04-26T08:38:54;98238.72;;;18.91;50.65
33163;BME280;29282;45.656;11.302;2023-04-26T08:41:22;98245.34;;;18.90;50.62
33163;BME280;29282;45.656;11.302;2023-04-26T08:43:50;98247.09;;;18.95;50.67
33163;BME280;29282;45.656;11.302;2023-04-26T08:46:18;98244.34;;;18.95;50.60
33163;BME280;29282;45.656;11.302;2023-04-26T08:48:48;98247.09;;;18.95;50.70
33163;BME280;29282;45.656;11.302;2023-04-26T08:51:17;98245.28;;;18.99;50.58
33163;BME280;29282;45.656;11.302;2023-04-26T08:53:43;98246.88;;;19.00;50.41
33163;BME280;29282;45.656;11.302;2023-04-26T08:56:09;98248.00;;;18.99;50.46
33163;BME280;29282;45.656;11.302;2023-04-26T08:58:37;98245.28;;;18.99;50.60
33163;BME280;29282;45.656;11.302;2023-04-26T09:01:03;98243.78;;;19.01;50.56
33163;BME280;29282;45.656;11.302;2023-04-26T09:03:29;98246.53;;;19.01;50.57
33163;BME280;29282;45.656;11.302;2023-04-26T09:05:55;98249.28;;;19.01;50.61
33163;BME280;29282;45.656;11.302;2023-04-26T09:08:20;98250.56;;;19.04;50.54
33163;BME280;29282;45.656;11.302;2023-04-26T09:10:46;98252.16;;;19.05;50.53
33163;BME280;29282;45.656;11.302;2023-04-26T09:13:12;98252.16;;;19.05;50.64
33163;BME280;29282;45.656;11.302;2023-04-26T09:15:38;98249.06;;;19.07;50.65
33163;BME280;29282;45.656;11.302;2023-04-26T09:18:21;98252.28;;;19.09;50.49
33163;BME280;29282;45.656;11.302;2023-04-26T09:21:07;98244.84;;;19.09;50.49
33163;BME280;29282;45.656;11.302;2023-04-26T09:23:33;98247.59;;;19.09;50.70
33163;BME280;29282;45.656;11.302;2023-04-26T09:26:19;98239.34;;;19.09;50.46
33163;BME280;29282;45.656;11.302;2023-04-26T09:28:45;98246.78;;;19.09;50.63
33163;BME280;29282;45.656;11.302;2023-04-26T09:31:35;98247.25;;;19.11;50.53
33163;BME280;29282;45.656;11.302;2023-04-26T09:33:59;98245.75;;;19.13;50.66
33163;BME280;29282;45.656;11.302;2023-04-26T09:36:25;98248.84;;;19.12;50.65
33163;BME280;29282;45.656;11.302;2023-04-26T09:38:51;98247.69;;;19.13;50.57
33163;BME280;29282;45.656;11.302;2023-04-26T09:41:17;98243.47;;;19.15;50.59
33163;BME280;29282;45.656;11.302;2023-04-26T09:43:42;98247.03;;;19.16;50.54
33163;BME280;29282;45.656;11.302;2023-04-26T09:46:08;98242.31;;;19.16;50.47
33163;BME280;29282;45.656;11.302;2023-04-26T09:48:33;98238.78;;;19.16;50.66
33163;BME280;29282;45.656;11.302;2023-04-26T09:53:31;98227.47;;;19.17;50.59
33163;BME280;29282;45.656;11.302;2023-04-26T09:56:08;98227.91;;;19.19;50.59
33163;BME280;29282;45.656;11.302;2023-04-26T09:59:00;98223.56;;;19.18;50.56
33163;BME280;29282;45.656;11.302;2023-04-26T10:01:27;98228.38;;;19.21;50.39
33163;BME280;29282;45.656;11.302;2023-04-26T10:03:55;98226.78;;;19.20;50.56
33163;BME280;29282;45.656;11.302;2023-04-26T10:06:22;98229.97;;;19.22;50.66
33163;BME280;29282;45.656;11.302;2023-04-26T10:08:47;98227.25;;;19.22;50.53
33163;BME280;29282;45.656;11.302;2023-04-26T10:11:13;98227.72;;;19.24;50.58
33163;BME280;29282;45.656;11.302;2023-04-26T10:13:40;98220.59;;;19.23;50.57
33163;BME280;29282;45.656;11.302;2023-04-26T10:16:06;98219.00;;;19.22;50.59
33163;BME280;29282;45.656;11.302;2023-04-26T10:18:34;98212.81;;;19.25;50.49
33163;BME280;29282;45.656;11.302;2023-04-26T10:21:05;98217.53;;;19.25;50.77
33163;BME280;29282;45.656;11.302;2023-04-26T10:23:31;98212.50;;;19.27;50.63
33163;BME280;29282;45.656;11.302;2023-04-26T10:25:58;98216.38;;;19.26;50.61
33163;BME280;29282;45.656;11.302;2023-04-26T10:31:04;98208.91;;;19.27;50.72
33163;BME280;29282;45.656;11.302;2023-04-26T10:33:31;98210.06;;;19.25;50.93
33163;BME280;29282;45.656;11.302;2023-04-26T10:38:27;98208.25;;;19.30;50.58
33163;BME280;29282;45.656;11.302;2023-04-26T10:40:52;98213.72;;;19.30;50.58
33163;BME280;29282;45.656;11.302;2023-04-26T10:45:47;98195.78;;;19.32;50.74
33163;BME280;29282;45.656;11.302;2023-04-26T10:48:30;98194.28;;;19.35;50.39
33163;BME280;29282;45.656;11.302;2023-04-26T10:59:09;98171.41;;;19.31;50.73
33163;BME280;29282;45.656;11.302;2023-04-26T11:01:36;98172.41;;;19.26;50.79
33163;BME280;29282;45.656;11.302;2023-04-26T11:04:09;98171.88;;;19.20;50.87
33163;BME280;29282;45.656;11.302;2023-04-26T11:06:54;98171.59;;;19.13;51.09
33163;BME280;29282;45.656;11.302;2023-04-26T11:09:40;98160.84;;;19.08;51.25
33163;BME280;29282;45.656;11.302;2023-04-26T11:12:13;98173.69;;;19.04;51.24
33163;BME280;29282;45.656;11.302;2023-04-26T11:14:43;98174.00;;;19.02;51.38
33163;BME280;29282;45.656;11.302;2023-04-26T11:17:09;98173.41;;;18.97;51.46
33163;BME280;29282;45.656;11.302;2023-04-26T11:19:35;98169.06;;;18.96;51.38
33163;BME280;29282;45.656;11.302;2023-04-26T11:22:02;98156.50;;;18.95;51.42
33163;BME280;29282;45.656;11.302;2023-04-26T11:24:29;98161.50;;;18.93;51.40
33163;BME280;29282;45.656;11.302;2023-04-26T11:26:56;98162.19;;;18.90;51.65
33163;BME280;29282;45.656;11.302;2023-04-26T11:29:23;98157.84;;;18.89;51.65
33163;BME280;29282;45.656;11.302;2023-04-26T11:31:56;98148.03;;;18.88;51.68
33163;BME280;29282;45.656;11.302;2023-04-26T11:34:35;98151.88;;;18.87;51.63
33163;BME280;29282;45.656;11.302;2023-04-26T11:37:03;98150.28;;;18.86;51.54
33163;BME280;29282;45.656;11.302;2023-04-26T11:39:32;98151.44;;;18.85;51.57
33163;BME280;29282;45.656;11.302;2023-04-26T11:42:05;98145.16;;;18.84;51.60
33163;BME280;29282;45.656;11.302;2023-04-26T11:44:34;98152.94;;;18.82;51.61
33163;BME280;29282;45.656;11.302;2023-04-26T11:47:00;98155.66;;;18.82;51.63
33163;BME280;29282;45.656;11.302;2023-04-26T11:49:36;98154.41;;;18.80;51.58
33163;BME280;29282;45.656;11.302;2023-04-26T11:52:03;98153.59;;;18.79;51.56
33163;BME280;29282;45.656;11.302;2023-04-26T11:54:34;98150.84;;;18.79;51.78
33163;BME280;29282;45.656;11.302;2023-04-26T11:57:00;98152.00;;;18.78;51.67
33163;BME280;29282;45.656;11.302;2023-04-26T11:59:36;98158.63;;;18.77;51.61
33163;BME280;29282;45.656;11.302;2023-04-26T12:02:04;98158.97;;;18.75;51.79
33163;BME280;29282;45.656;11.302;2023-04-26T12:04:31;98152.69;;;18.75;51.71
33163;BME280;29282;45.656;11.302;2023-04-26T12:06:57;98149.16;;;18.74;51.86
33163;BME280;29282;45.656;11.302;2023-04-26T12:09:26;98144.78;;;18.73;51.80
33163;BME280;29282;45.656;11.302;2023-04-26T12:11:56;98150.25;;;18.73;51.62
33163;BME280;29282;45.656;11.302;2023-04-26T12:14:35;98145.94;;;18.72;51.70
33163;BME280;29282;45.656;11.302;2023-04-26T12:17:01;98145.13;;;18.72;51.82
33163;BME280;29282;45.656;11.302;2023-04-26T12:19:28;98145.94;;;18.72;51.61
33163;BME280;29282;45.656;11.302;2023-04-26T12:21:57;98145.41;;;18.70;51.74
33163;BME280;29282;45.656;11.302;2023-04-26T12:24:30;98150.91;;;18.70;51.76
33163;BME280;29282;45.656;11.302;2023-04-26T12:26:59;98144.63;;;18.70;51.74
33163;BME280;29282;45.656;11.302;2023-04-26T12:29:25;98159.16;;;18.70;51.79
33163;BME280;29282;45.656;11.302;2023-04-26T12:31:52;98158.34;;;18.70;51.88
33163;BME280;29282;45.656;11.302;2023-04-26T12:34:17;98156.75;;;18.69;51.73
33163;BME280;29282;45.656;11.302;2023-04-26T12:36:43;98145.41;;;18.70;51.54
33163;BME280;29282;45.656;11.302;2023-04-26T12:39:10;98149.78;;;18.71;51.60
33163;BME280;29282;45.656;11.302;2023-04-26T12:41:35;98141.56;;;18.71;51.73
33163;BME280;29282;45.656;11.302;2023-04-26T12:44:01;98145.41;;;18.70;51.68
33163;BME280;29282;45.656;11.302;2023-04-26T12:46:26;98150.47;;;18.68;51.66
33163;BME280;29282;45.656;11.302;2023-04-26T12:48:52;98144.19;;;18.68;51.71
33163;BME280;29282;45.656;11.302;2023-04-26T12:51:19;98144.50;;;18.66;51.70
33163;BME280;29282;45.656;11.302;2023-04-26T12:53:44;98138.22;;;18.66;51.63
33163;BME280;29282;45.656;11.302;2023-04-26T12:56:10;98142.56;;;18.67;51.70
33163;BME280;29282;45.656;11.302;2023-04-26T12:58:35;98142.22;;;18.68;51.70
33163;BME280;29282;45.656;11.302;2023-04-26T13:01:00;98136.38;;;18.70;51.66
33163;BME280;29282;45.656;11.302;2023-04-26T13:03:26;98139.94;;;18.70;51.77
33163;BME280;29282;45.656;11.302;2023-04-26T13:05:51;98148.31;;;18.74;51.87